Town Center, New Jersey
Current Conditions -  °F | °C
As of 7:53 AM on Thursday 18 Dec 2014 (Local Time) from KCDW Reporting Station
Overcast Overcast  
Wind Chill: 32°   Ceiling: 3900
Heat Index: 37°   Visibility: 10mi
Dew Point: 22°   Wind: 7mph
Humidity: 54%   Direction: 320°NW
Pressure: 29.98"   Gusts: 16mph
Location:  40.7895°N, 74.2629°W
Report Text: KCDW 181253Z AUTO 32006G14KT 10SM OVC039 03/M06 A2998 RMK AO2 SLP157 T00281056 TSNO
Loading
Personal Weather Stations






























Interactive Weather Map New forecast layout! Learn more

10-Day Weather Forecast

Advertisements
Track Severe Weather on mobile